sensor_id;sensor_type;location;lat;lon;timestamp;temperature;humidity
27492;DHT22;14927;51.210;6.838;2023-07-31T00:01:35;21.20;68.90
27492;DHT22;14927;51.210;6.838;2023-07-31T00:04:20;21.20;68.80
27492;DHT22;14927;51.210;6.838;2023-07-31T00:07:04;21.20;68.80
27492;DHT22;14927;51.210;6.838;2023-07-31T00:09:50;21.30;68.80
27492;DHT22;14927;51.210;6.838;2023-07-31T00:12:35;21.30;68.70
27492;DHT22;14927;51.210;6.838;2023-07-31T00:15:19;21.20;68.70
27492;DHT22;14927;51.210;6.838;2023-07-31T00:18:04;21.20;68.60
27492;DHT22;14927;51.210;6.838;2023-07-31T00:20:49;21.20;68.80
27492;DHT22;14927;51.210;6.838;2023-07-31T00:23:33;21.30;68.70
27492;DHT22;14927;51.210;6.838;2023-07-31T00:26:18;21.20;68.70
27492;DHT22;14927;51.210;6.838;2023-07-31T00:29:02;21.30;68.60
27492;DHT22;14927;51.210;6.838;2023-07-31T00:31:47;21.30;68.60
27492;DHT22;14927;51.210;6.838;2023-07-31T00:34:32;21.30;68.50
27492;DHT22;14927;51.210;6.838;2023-07-31T00:37:17;21.30;68.50
27492;DHT22;14927;51.210;6.838;2023-07-31T00:40:01;21.30;68.60
27492;DHT22;14927;51.210;6.838;2023-07-31T00:42:47;21.30;68.50
27492;DHT22;14927;51.210;6.838;2023-07-31T00:45:32;21.30;68.20
27492;DHT22;14927;51.210;6.838;2023-07-31T00:48:17;21.30;68.10
27492;DHT22;14927;51.210;6.838;2023-07-31T00:51:03;21.30;67.90
27492;DHT22;14927;51.210;6.838;2023-07-31T00:53:48;21.30;67.90
27492;DHT22;14927;51.210;6.838;2023-07-31T00:56:33;21.30;67.70
27492;DHT22;14927;51.210;6.838;2023-07-31T00:59:18;21.30;67.60
27492;DHT22;14927;51.210;6.838;2023-07-31T01:02:03;21.30;68.20
27492;DHT22;14927;51.210;6.838;2023-07-31T01:04:48;21.30;67.50
27492;DHT22;14927;51.210;6.838;2023-07-31T01:07:52;21.30;67.30
27492;DHT22;14927;51.210;6.838;2023-07-31T01:10:52;21.30;67.70
27492;DHT22;14927;51.210;6.838;2023-07-31T01:13:40;21.30;67.30
27492;DHT22;14927;51.210;6.838;2023-07-31T01:16:28;21.30;67.30
27492;DHT22;14927;51.210;6.838;2023-07-31T01:19:15;21.30;67.30
27492;DHT22;14927;51.210;6.838;2023-07-31T01:28:23;21.30;67.00
27492;DHT22;14927;51.210;6.838;2023-07-31T01:31:31;21.30;66.80
27492;DHT22;14927;51.210;6.838;2023-07-31T01:34:17;21.30;66.60
27492;DHT22;14927;51.210;6.838;2023-07-31T01:37:03;21.30;66.60
27492;DHT22;14927;51.210;6.838;2023-07-31T01:39:47;21.30;66.50
27492;DHT22;14927;51.210;6.838;2023-07-31T01:42:33;21.30;66.40
27492;DHT22;14927;51.210;6.838;2023-07-31T01:45:17;21.30;66.40
27492;DHT22;14927;51.210;6.838;2023-07-31T01:48:02;21.30;66.30
27492;DHT22;14927;51.210;6.838;2023-07-31T01:50:47;21.30;66.30
27492;DHT22;14927;51.210;6.838;2023-07-31T01:53:32;21.30;66.20
27492;DHT22;14927;51.210;6.838;2023-07-31T01:56:16;21.30;66.10
27492;DHT22;14927;51.210;6.838;2023-07-31T01:59:01;21.30;66.00
27492;DHT22;14927;51.210;6.838;2023-07-31T02:01:45;21.30;66.00
27492;DHT22;14927;51.210;6.838;2023-07-31T02:04:30;21.30;65.90
27492;DHT22;14927;51.210;6.838;2023-07-31T02:07:15;21.30;65.70
27492;DHT22;14927;51.210;6.838;2023-07-31T02:09:59;21.30;65.60
27492;DHT22;14927;51.210;6.838;2023-07-31T02:12:44;21.30;65.70
27492;DHT22;14927;51.210;6.838;2023-07-31T02:15:32;21.30;65.70
27492;DHT22;14927;51.210;6.838;2023-07-31T02:18:16;21.30;65.60
27492;DHT22;14927;51.210;6.838;2023-07-31T02:21:01;21.40;65.80
27492;DHT22;14927;51.210;6.838;2023-07-31T02:23:45;21.30;65.70
27492;DHT22;14927;51.210;6.838;2023-07-31T02:26:30;21.30;65.60
27492;DHT22;14927;51.210;6.838;2023-07-31T02:29:14;21.40;65.60
27492;DHT22;14927;51.210;6.838;2023-07-31T02:31:59;21.30;65.50
27492;DHT22;14927;51.210;6.838;2023-07-31T02:34:44;21.40;65.60
27492;DHT22;14927;51.210;6.838;2023-07-31T02:37:28;21.40;65.50
27492;DHT22;14927;51.210;6.838;2023-07-31T02:40:13;21.30;65.40
27492;DHT22;14927;51.210;6.838;2023-07-31T02:42:58;21.30;65.30
27492;DHT22;14927;51.210;6.838;2023-07-31T02:45:42;21.30;65.30
27492;DHT22;14927;51.210;6.838;2023-07-31T02:48:27;21.40;65.60
27492;DHT22;14927;51.210;6.838;2023-07-31T02:51:11;21.40;65.60
27492;DHT22;14927;51.210;6.838;2023-07-31T02:53:56;21.40;65.70
27492;DHT22;14927;51.210;6.838;2023-07-31T02:56:40;21.30;65.70
27492;DHT22;14927;51.210;6.838;2023-07-31T02:59:25;21.30;65.90
27492;DHT22;14927;51.210;6.838;2023-07-31T03:02:10;21.30;65.90
27492;DHT22;14927;51.210;6.838;2023-07-31T03:04:55;21.30;65.90
27492;DHT22;14927;51.210;6.838;2023-07-31T03:07:39;21.30;66.00
27492;DHT22;14927;51.210;6.838;2023-07-31T03:10:24;21.40;66.10
27492;DHT22;14927;51.210;6.838;2023-07-31T03:13:09;21.30;66.00
27492;DHT22;14927;51.210;6.838;2023-07-31T03:15:53;21.30;66.00
27492;DHT22;14927;51.210;6.838;2023-07-31T03:18:38;21.40;66.20
27492;DHT22;14927;51.210;6.838;2023-07-31T03:21:23;21.30;66.10
27492;DHT22;14927;51.210;6.838;2023-07-31T03:24:07;21.30;66.10
27492;DHT22;14927;51.210;6.838;2023-07-31T03:26:53;21.40;66.20
27492;DHT22;14927;51.210;6.838;2023-07-31T03:29:38;21.30;66.10
27492;DHT22;14927;51.210;6.838;2023-07-31T03:32:22;21.40;66.20
27492;DHT22;14927;51.210;6.838;2023-07-31T03:35:07;21.30;66.10
27492;DHT22;14927;51.210;6.838;2023-07-31T03:37:52;21.40;66.10
27492;DHT22;14927;51.210;6.838;2023-07-31T03:40:37;21.40;66.10
27492;DHT22;14927;51.210;6.838;2023-07-31T03:43:22;21.40;66.20
27492;DHT22;14927;51.210;6.838;2023-07-31T03:46:06;21.40;66.10
27492;DHT22;14927;51.210;6.838;2023-07-31T03:48:51;21.40;66.00
27492;DHT22;14927;51.210;6.838;2023-07-31T03:51:35;21.40;66.00
27492;DHT22;14927;51.210;6.838;2023-07-31T03:54:20;21.40;66.00
27492;DHT22;14927;51.210;6.838;2023-07-31T03:57:05;21.40;66.00
27492;DHT22;14927;51.210;6.838;2023-07-31T03:59:49;21.40;66.00
27492;DHT22;14927;51.210;6.838;2023-07-31T04:02:34;21.40;66.00
27492;DHT22;14927;51.210;6.838;2023-07-31T04:05:19;21.40;66.10
27492;DHT22;14927;51.210;6.838;2023-07-31T04:08:03;21.50;66.10
27492;DHT22;14927;51.210;6.838;2023-07-31T04:10:48;21.40;66.10
27492;DHT22;14927;51.210;6.838;2023-07-31T04:13:33;21.40;66.00
27492;DHT22;14927;51.210;6.838;2023-07-31T04:16:17;21.40;66.00
27492;DHT22;14927;51.210;6.838;2023-07-31T04:19:02;21.40;66.20
27492;DHT22;14927;51.210;6.838;2023-07-31T04:21:47;21.40;66.20
27492;DHT22;14927;51.210;6.838;2023-07-31T04:24:32;21.40;66.40
27492;DHT22;14927;51.210;6.838;2023-07-31T04:27:16;21.40;66.50
27492;DHT22;14927;51.210;6.838;2023-07-31T04:30:01;21.40;66.50
27492;DHT22;14927;51.210;6.838;2023-07-31T04:32:46;21.40;66.70
27492;DHT22;14927;51.210;6.838;2023-07-31T04:35:30;21.40;66.80
27492;DHT22;14927;51.210;6.838;2023-07-31T04:38:15;21.40;66.80
27492;DHT22;14927;51.210;6.838;2023-07-31T04:41:00;21.40;66.90
27492;DHT22;14927;51.210;6.838;2023-07-31T04:43:45;21.40;67.80
27492;DHT22;14927;51.210;6.838;2023-07-31T04:46:30;21.40;67.00
27492;DHT22;14927;51.210;6.838;2023-07-31T04:49:14;21.40;67.00
27492;DHT22;14927;51.210;6.838;2023-07-31T04:51:59;21.40;67.00
27492;DHT22;14927;51.210;6.838;2023-07-31T04:54:43;21.40;67.00
27492;DHT22;14927;51.210;6.838;2023-07-31T04:57:28;21.40;67.30
27492;DHT22;14927;51.210;6.838;2023-07-31T05:00:13;21.40;67.40
27492;DHT22;14927;51.210;6.838;2023-07-31T05:02:58;21.50;67.60
27492;DHT22;14927;51.210;6.838;2023-07-31T05:05:42;21.50;67.60
27492;DHT22;14927;51.210;6.838;2023-07-31T05:08:27;21.50;67.60
27492;DHT22;14927;51.210;6.838;2023-07-31T05:11:12;21.50;67.50
27492;DHT22;14927;51.210;6.838;2023-07-31T05:13:56;21.50;67.50
27492;DHT22;14927;51.210;6.838;2023-07-31T05:16:41;21.50;67.40
27492;DHT22;14927;51.210;6.838;2023-07-31T05:19:26;21.50;67.40
27492;DHT22;14927;51.210;6.838;2023-07-31T05:22:10;21.60;67.50
27492;DHT22;14927;51.210;6.838;2023-07-31T05:24:55;21.60;67.50
27492;DHT22;14927;51.210;6.838;2023-07-31T05:27:40;21.60;67.30
27492;DHT22;14927;51.210;6.838;2023-07-31T05:30:24;21.60;67.20
27492;DHT22;14927;51.210;6.838;2023-07-31T05:33:09;21.60;67.10
27492;DHT22;14927;51.210;6.838;2023-07-31T05:35:53;21.60;67.00
27492;DHT22;14927;51.210;6.838;2023-07-31T05:38:38;21.70;67.00
27492;DHT22;14927;51.210;6.838;2023-07-31T05:41:23;21.70;66.80
27492;DHT22;14927;51.210;6.838;2023-07-31T05:44:07;21.70;66.80
27492;DHT22;14927;51.210;6.838;2023-07-31T05:46:52;21.70;66.60
27492;DHT22;14927;51.210;6.838;2023-07-31T05:49:36;21.70;66.60
27492;DHT22;14927;51.210;6.838;2023-07-31T05:52:21;21.70;66.50
27492;DHT22;14927;51.210;6.838;2023-07-31T05:55:05;21.70;66.50
27492;DHT22;14927;51.210;6.838;2023-07-31T05:57:50;21.70;66.40
27492;DHT22;14927;51.210;6.838;2023-07-31T06:00:35;21.80;66.40
27492;DHT22;14927;51.210;6.838;2023-07-31T06:03:19;21.80;66.30
27492;DHT22;14927;51.210;6.838;2023-07-31T06:06:04;21.80;66.20
27492;DHT22;14927;51.210;6.838;2023-07-31T06:08:49;21.80;66.00
27492;DHT22;14927;51.210;6.838;2023-07-31T06:11:34;21.80;66.00
27492;DHT22;14927;51.210;6.838;2023-07-31T06:14:18;21.80;66.00
27492;DHT22;14927;51.210;6.838;2023-07-31T06:17:03;21.80;66.20
27492;DHT22;14927;51.210;6.838;2023-07-31T06:19:49;21.80;66.50
27492;DHT22;14927;51.210;6.838;2023-07-31T06:22:33;21.80;66.50
27492;DHT22;14927;51.210;6.838;2023-07-31T06:25:18;21.80;66.60
27492;DHT22;14927;51.210;6.838;2023-07-31T06:28:02;21.80;66.60
27492;DHT22;14927;51.210;6.838;2023-07-31T06:30:47;21.80;66.90
27492;DHT22;14927;51.210;6.838;2023-07-31T06:33:31;21.70;67.10
27492;DHT22;14927;51.210;6.838;2023-07-31T06:36:16;21.70;67.40
27492;DHT22;14927;51.210;6.838;2023-07-31T06:39:00;21.70;67.70
27492;DHT22;14927;51.210;6.838;2023-07-31T06:41:45;21.70;67.90
27492;DHT22;14927;51.210;6.838;2023-07-31T06:44:29;21.70;67.90
27492;DHT22;14927;51.210;6.838;2023-07-31T06:47:14;21.70;68.10
27492;DHT22;14927;51.210;6.838;2023-07-31T06:49:59;21.60;68.10
27492;DHT22;14927;51.210;6.838;2023-07-31T06:52:44;21.60;68.40
27492;DHT22;14927;51.210;6.838;2023-07-31T06:55:28;21.60;68.70
27492;DHT22;14927;51.210;6.838;2023-07-31T06:58:13;21.60;68.70
27492;DHT22;14927;51.210;6.838;2023-07-31T07:00:57;21.60;68.60
27492;DHT22;14927;51.210;6.838;2023-07-31T07:03:42;21.60;68.50
27492;DHT22;14927;51.210;6.838;2023-07-31T07:06:27;21.60;68.40
27492;DHT22;14927;51.210;6.838;2023-07-31T07:09:11;21.60;68.50
27492;DHT22;14927;51.210;6.838;2023-07-31T07:11:56;21.70;68.50
27492;DHT22;14927;51.210;6.838;2023-07-31T07:14:41;21.70;68.40
27492;DHT22;14927;51.210;6.838;2023-07-31T07:17:27;21.60;68.30
27492;DHT22;14927;51.210;6.838;2023-07-31T07:20:13;21.60;68.30
27492;DHT22;14927;51.210;6.838;2023-07-31T07:22:58;21.60;68.30
27492;DHT22;14927;51.210;6.838;2023-07-31T07:25:43;21.60;68.10
27492;DHT22;14927;51.210;6.838;2023-07-31T07:28:28;21.60;68.20
27492;DHT22;14927;51.210;6.838;2023-07-31T07:31:14;21.60;68.40
27492;DHT22;14927;51.210;6.838;2023-07-31T07:33:59;21.60;68.50
27492;DHT22;14927;51.210;6.838;2023-07-31T07:36:43;21.60;68.60
27492;DHT22;14927;51.210;6.838;2023-07-31T07:39:28;21.60;68.60
27492;DHT22;14927;51.210;6.838;2023-07-31T07:42:13;21.50;68.60
27492;DHT22;14927;51.210;6.838;2023-07-31T07:44:57;21.60;68.90
27492;DHT22;14927;51.210;6.838;2023-07-31T07:47:42;21.60;69.20
27492;DHT22;14927;51.210;6.838;2023-07-31T07:50:27;21.60;69.40
27492;DHT22;14927;51.210;6.838;2023-07-31T07:53:11;21.60;69.50
27492;DHT22;14927;51.210;6.838;2023-07-31T07:55:56;21.60;69.50
27492;DHT22;14927;51.210;6.838;2023-07-31T07:58:41;21.60;70.20
27492;DHT22;14927;51.210;6.838;2023-07-31T08:01:25;21.50;69.20
27492;DHT22;14927;51.210;6.838;2023-07-31T08:04:10;21.50;69.40
27492;DHT22;14927;51.210;6.838;2023-07-31T08:06:55;21.50;69.70
27492;DHT22;14927;51.210;6.838;2023-07-31T08:09:40;21.50;69.70
27492;DHT22;14927;51.210;6.838;2023-07-31T08:12:25;21.50;70.20
27492;DHT22;14927;51.210;6.838;2023-07-31T08:15:09;21.50;69.30
27492;DHT22;14927;51.210;6.838;2023-07-31T08:17:54;21.40;69.50
27492;DHT22;14927;51.210;6.838;2023-07-31T08:20:39;21.50;69.70
27492;DHT22;14927;51.210;6.838;2023-07-31T08:23:23;21.40;69.70
27492;DHT22;14927;51.210;6.838;2023-07-31T08:26:09;21.40;69.60
27492;DHT22;14927;51.210;6.838;2023-07-31T08:28:59;21.40;69.70
27492;DHT22;14927;51.210;6.838;2023-07-31T08:31:43;21.40;69.70
27492;DHT22;14927;51.210;6.838;2023-07-31T08:34:28;21.40;69.60
27492;DHT22;14927;51.210;6.838;2023-07-31T08:37:12;21.40;69.60
27492;DHT22;14927;51.210;6.838;2023-07-31T08:39:57;21.40;69.50
27492;DHT22;14927;51.210;6.838;2023-07-31T08:42:44;21.40;69.40
27492;DHT22;14927;51.210;6.838;2023-07-31T08:45:32;21.40;69.40
27492;DHT22;14927;51.210;6.838;2023-07-31T08:48:17;21.40;69.40
27492;DHT22;14927;51.210;6.838;2023-07-31T08:51:02;21.40;69.40
27492;DHT22;14927;51.210;6.838;2023-07-31T08:53:47;21.40;69.30
27492;DHT22;14927;51.210;6.838;2023-07-31T08:56:32;21.50;69.30
27492;DHT22;14927;51.210;6.838;2023-07-31T08:59:18;21.50;69.50
27492;DHT22;14927;51.210;6.838;2023-07-31T09:02:07;21.50;69.50
27492;DHT22;14927;51.210;6.838;2023-07-31T09:04:52;21.50;69.60
27492;DHT22;14927;51.210;6.838;2023-07-31T09:07:37;21.50;69.50
27492;DHT22;14927;51.210;6.838;2023-07-31T09:10:23;21.50;69.20
27492;DHT22;14927;51.210;6.838;2023-07-31T09:13:09;21.50;69.10
27492;DHT22;14927;51.210;6.838;2023-07-31T09:15:54;21.50;69.10
27492;DHT22;14927;51.210;6.838;2023-07-31T09:18:53;21.50;69.20
27492;DHT22;14927;51.210;6.838;2023-07-31T09:21:49;21.50;69.60
27492;DHT22;14927;51.210;6.838;2023-07-31T09:24:34;21.50;69.40
27492;DHT22;14927;51.210;6.838;2023-07-31T09:27:19;21.50;69.50
27492;DHT22;14927;51.210;6.838;2023-07-31T09:30:04;21.50;70.00
27492;DHT22;14927;51.210;6.838;2023-07-31T09:32:50;21.50;70.30
27492;DHT22;14927;51.210;6.838;2023-07-31T09:35:35;21.50;70.30
27492;DHT22;14927;51.210;6.838;2023-07-31T09:38:21;21.50;70.50
27492;DHT22;14927;51.210;6.838;2023-07-31T09:41:06;21.50;70.50
27492;DHT22;14927;51.210;6.838;2023-07-31T09:43:55;21.50;70.70
27492;DHT22;14927;51.210;6.838;2023-07-31T09:46:40;21.50;70.80
27492;DHT22;14927;51.210;6.838;2023-07-31T09:49:25;21.50;70.90
27492;DHT22;14927;51.210;6.838;2023-07-31T09:52:12;21.50;72.00
27492;DHT22;14927;51.210;6.838;2023-07-31T09:54:57;21.50;71.50
27492;DHT22;14927;51.210;6.838;2023-07-31T09:57:48;21.50;71.70
27492;DHT22;14927;51.210;6.838;2023-07-31T10:00:34;21.50;72.00
27492;DHT22;14927;51.210;6.838;2023-07-31T10:03:19;21.50;71.90
27492;DHT22;14927;51.210;6.838;2023-07-31T10:06:05;21.40;71.80
27492;DHT22;14927;51.210;6.838;2023-07-31T10:08:52;21.50;72.00
27492;DHT22;14927;51.210;6.838;2023-07-31T10:11:41;21.50;72.00
27492;DHT22;14927;51.210;6.838;2023-07-31T10:14:31;21.50;71.90
27492;DHT22;14927;51.210;6.838;2023-07-31T10:17:16;21.50;71.90
27492;DHT22;14927;51.210;6.838;2023-07-31T10:20:03;21.50;72.20
27492;DHT22;14927;51.210;6.838;2023-07-31T10:22:49;21.50;72.20
27492;DHT22;14927;51.210;6.838;2023-07-31T10:25:34;21.50;72.30
27492;DHT22;14927;51.210;6.838;2023-07-31T10:28:21;21.50;72.30
27492;DHT22;14927;51.210;6.838;2023-07-31T10:31:05;21.50;72.30
27492;DHT22;14927;51.210;6.838;2023-07-31T10:33:54;21.50;72.10
27492;DHT22;14927;51.210;6.838;2023-07-31T10:36:40;21.50;72.40
27492;DHT22;14927;51.210;6.838;2023-07-31T10:39:36;21.50;72.50
27492;DHT22;14927;51.210;6.838;2023-07-31T10:42:31;21.60;72.80
27492;DHT22;14927;51.210;6.838;2023-07-31T10:45:31;21.60;72.80
27492;DHT22;14927;51.210;6.838;2023-07-31T10:48:33;21.70;72.80
27492;DHT22;14927;51.210;6.838;2023-07-31T10:51:21;21.70;72.60
27492;DHT22;14927;51.210;6.838;2023-07-31T10:54:11;21.80;72.60
27492;DHT22;14927;51.210;6.838;2023-07-31T10:56:59;21.90;72.60
27492;DHT22;14927;51.210;6.838;2023-07-31T10:59:44;21.90;72.10
27492;DHT22;14927;51.210;6.838;2023-07-31T11:02:33;21.90;71.90
27492;DHT22;14927;51.210;6.838;2023-07-31T11:05:18;22.00;71.40
27492;DHT22;14927;51.210;6.838;2023-07-31T11:08:20;22.00;70.90
27492;DHT22;14927;51.210;6.838;2023-07-31T11:11:10;22.10;70.30
27492;DHT22;14927;51.210;6.838;2023-07-31T11:14:00;22.10;69.90
27492;DHT22;14927;51.210;6.838;2023-07-31T11:16:44;22.10;69.60
27492;DHT22;14927;51.210;6.838;2023-07-31T11:19:29;22.20;69.40
27492;DHT22;14927;51.210;6.838;2023-07-31T11:22:13;22.20;69.30
27492;DHT22;14927;51.210;6.838;2023-07-31T11:24:58;22.20;69.10
27492;DHT22;14927;51.210;6.838;2023-07-31T11:27:43;22.20;69.20
27492;DHT22;14927;51.210;6.838;2023-07-31T11:30:27;22.20;69.30
27492;DHT22;14927;51.210;6.838;2023-07-31T11:33:13;22.30;69.10
27492;DHT22;14927;51.210;6.838;2023-07-31T11:35:58;22.30;68.60
27492;DHT22;14927;51.210;6.838;2023-07-31T11:38:43;22.30;68.30
27492;DHT22;14927;51.210;6.838;2023-07-31T11:41:29;22.40;68.00
27492;DHT22;14927;51.210;6.838;2023-07-31T11:44:13;22.40;67.80
27492;DHT22;14927;51.210;6.838;2023-07-31T11:46:58;22.40;67.70
27492;DHT22;14927;51.210;6.838;2023-07-31T11:49:45;22.50;67.70
27492;DHT22;14927;51.210;6.838;2023-07-31T11:52:34;22.50;67.70
27492;DHT22;14927;51.210;6.838;2023-07-31T11:55:29;22.50;67.50
27492;DHT22;14927;51.210;6.838;2023-07-31T11:58:15;22.60;67.60
27492;DHT22;14927;51.210;6.838;2023-07-31T12:01:00;22.60;67.30
27492;DHT22;14927;51.210;6.838;2023-07-31T12:03:47;22.60;67.00
27492;DHT22;14927;51.210;6.838;2023-07-31T12:06:45;22.70;66.90
27492;DHT22;14927;51.210;6.838;2023-07-31T12:09:32;22.70;66.60
27492;DHT22;14927;51.210;6.838;2023-07-31T12:12:20;22.70;66.40
27492;DHT22;14927;51.210;6.838;2023-07-31T12:15:14;22.70;66.50
27492;DHT22;14927;51.210;6.838;2023-07-31T12:18:03;22.70;66.20
27492;DHT22;14927;51.210;6.838;2023-07-31T12:21:00;22.80;66.40
27492;DHT22;14927;51.210;6.838;2023-07-31T12:23:46;22.80;66.10
27492;DHT22;14927;51.210;6.838;2023-07-31T12:26:34;22.80;66.20
27492;DHT22;14927;51.210;6.838;2023-07-31T12:29:19;22.80;65.90
27492;DHT22;14927;51.210;6.838;2023-07-31T12:32:04;22.80;66.10
27492;DHT22;14927;51.210;6.838;2023-07-31T12:34:50;22.80;66.10
27492;DHT22;14927;51.210;6.838;2023-07-31T12:37:34;22.90;66.20
27492;DHT22;14927;51.210;6.838;2023-07-31T12:40:19;22.90;66.10
27492;DHT22;14927;51.210;6.838;2023-07-31T12:43:03;22.90;66.30
27492;DHT22;14927;51.210;6.838;2023-07-31T12:45:48;22.90;66.10
27492;DHT22;14927;51.210;6.838;2023-07-31T12:48:33;22.90;66.20
27492;DHT22;14927;51.210;6.838;2023-07-31T12:51:18;23.00;66.30
27492;DHT22;14927;51.210;6.838;2023-07-31T12:54:03;23.00;66.40
27492;DHT22;14927;51.210;6.838;2023-07-31T12:56:48;23.00;66.40
27492;DHT22;14927;51.210;6.838;2023-07-31T12:59:32;23.00;66.30
27492;DHT22;14927;51.210;6.838;2023-07-31T13:02:17;23.00;66.30
27492;DHT22;14927;51.210;6.838;2023-07-31T13:05:02;23.00;66.30
27492;DHT22;14927;51.210;6.838;2023-07-31T13:07:47;23.10;66.20
27492;DHT22;14927;51.210;6.838;2023-07-31T13:10:32;23.10;66.00
27492;DHT22;14927;51.210;6.838;2023-07-31T13:13:16;23.10;66.20
27492;DHT22;14927;51.210;6.838;2023-07-31T13:16:01;23.20;66.10
27492;DHT22;14927;51.210;6.838;2023-07-31T13:18:45;23.30;66.00
27492;DHT22;14927;51.210;6.838;2023-07-31T13:21:30;23.30;65.40
27492;DHT22;14927;51.210;6.838;2023-07-31T13:24:15;23.30;65.70
27492;DHT22;14927;51.210;6.838;2023-07-31T13:26:59;23.40;64.60
27492;DHT22;14927;51.210;6.838;2023-07-31T13:29:45;23.40;64.50
27492;DHT22;14927;51.210;6.838;2023-07-31T13:32:29;23.40;64.40
27492;DHT22;14927;51.210;6.838;2023-07-31T13:35:14;23.50;64.00
27492;DHT22;14927;51.210;6.838;2023-07-31T13:37:59;23.50;63.70
27492;DHT22;14927;51.210;6.838;2023-07-31T13:40:43;23.50;63.50
27492;DHT22;14927;51.210;6.838;2023-07-31T13:43:28;23.60;64.20
27492;DHT22;14927;51.210;6.838;2023-07-31T13:46:13;23.50;63.10
27492;DHT22;14927;51.210;6.838;2023-07-31T13:48:58;23.70;63.80
27492;DHT22;14927;51.210;6.838;2023-07-31T13:51:44;23.80;62.80
27492;DHT22;14927;51.210;6.838;2023-07-31T13:54:29;23.80;62.10
27492;DHT22;14927;51.210;6.838;2023-07-31T13:57:14;23.90;61.80
27492;DHT22;14927;51.210;6.838;2023-07-31T13:59:58;23.90;61.50
27492;DHT22;14927;51.210;6.838;2023-07-31T14:02:43;24.00;61.40
27492;DHT22;14927;51.210;6.838;2023-07-31T14:05:27;24.00;61.20
27492;DHT22;14927;51.210;6.838;2023-07-31T14:08:12;24.00;61.20
27492;DHT22;14927;51.210;6.838;2023-07-31T14:10:56;24.00;61.10
27492;DHT22;14927;51.210;6.838;2023-07-31T14:13:41;24.00;61.10
27492;DHT22;14927;51.210;6.838;2023-07-31T14:16:25;24.10;61.00
27492;DHT22;14927;51.210;6.838;2023-07-31T14:19:10;24.10;60.80
27492;DHT22;14927;51.210;6.838;2023-07-31T14:21:55;24.20;60.60
27492;DHT22;14927;51.210;6.838;2023-07-31T14:24:39;24.10;60.10
27492;DHT22;14927;51.210;6.838;2023-07-31T14:27:24;24.20;60.10
27492;DHT22;14927;51.210;6.838;2023-07-31T14:30:09;24.10;60.10
27492;DHT22;14927;51.210;6.838;2023-07-31T14:32:54;24.10;59.80
27492;DHT22;14927;51.210;6.838;2023-07-31T14:35:38;24.10;59.60
27492;DHT22;14927;51.210;6.838;2023-07-31T14:38:23;24.10;59.50
27492;DHT22;14927;51.210;6.838;2023-07-31T14:41:08;24.10;59.50
27492;DHT22;14927;51.210;6.838;2023-07-31T14:43:52;24.00;59.40
27492;DHT22;14927;51.210;6.838;2023-07-31T14:46:37;24.00;59.50
27492;DHT22;14927;51.210;6.838;2023-07-31T14:49:23;24.00;59.50
27492;DHT22;14927;51.210;6.838;2023-07-31T14:52:08;24.00;60.40
27492;DHT22;14927;51.210;6.838;2023-07-31T14:54:52;24.00;59.70
27492;DHT22;14927;51.210;6.838;2023-07-31T14:57:37;24.00;59.60
27492;DHT22;14927;51.210;6.838;2023-07-31T15:00:22;24.10;59.60
27492;DHT22;14927;51.210;6.838;2023-07-31T15:03:08;24.10;59.40
27492;DHT22;14927;51.210;6.838;2023-07-31T15:05:53;24.10;59.40
27492;DHT22;14927;51.210;6.838;2023-07-31T15:08:38;24.10;59.20
27492;DHT22;14927;51.210;6.838;2023-07-31T15:11:23;24.10;59.00
27492;DHT22;14927;51.210;6.838;2023-07-31T15:14:07;24.10;58.90
27492;DHT22;14927;51.210;6.838;2023-07-31T15:16:55;24.10;58.70
27492;DHT22;14927;51.210;6.838;2023-07-31T15:19:48;24.10;58.60
27492;DHT22;14927;51.210;6.838;2023-07-31T15:22:36;24.10;58.50
27492;DHT22;14927;51.210;6.838;2023-07-31T15:25:21;24.20;58.80
27492;DHT22;14927;51.210;6.838;2023-07-31T15:28:06;24.10;58.70
27492;DHT22;14927;51.210;6.838;2023-07-31T15:30:51;24.10;58.60
27492;DHT22;14927;51.210;6.838;2023-07-31T15:33:36;24.10;58.60
27492;DHT22;14927;51.210;6.838;2023-07-31T15:36:20;24.10;58.50
27492;DHT22;14927;51.210;6.838;2023-07-31T15:39:05;24.10;58.40
27492;DHT22;14927;51.210;6.838;2023-07-31T15:41:52;24.10;58.90
27492;DHT22;14927;51.210;6.838;2023-07-31T15:44:40;24.10;58.20
27492;DHT22;14927;51.210;6.838;2023-07-31T15:47:36;24.10;58.10
27492;DHT22;14927;51.210;6.838;2023-07-31T15:50:21;24.30;58.30
27492;DHT22;14927;51.210;6.838;2023-07-31T15:53:06;24.00;58.20
27492;DHT22;14927;51.210;6.838;2023-07-31T15:55:50;24.00;58.20
27492;DHT22;14927;51.210;6.838;2023-07-31T15:58:35;24.00;58.20
27492;DHT22;14927;51.210;6.838;2023-07-31T16:01:20;24.00;58.30
27492;DHT22;14927;51.210;6.838;2023-07-31T16:04:11;24.00;58.20
27492;DHT22;14927;51.210;6.838;2023-07-31T16:06:56;24.00;58.10
27492;DHT22;14927;51.210;6.838;2023-07-31T16:09:41;24.00;58.20
27492;DHT22;14927;51.210;6.838;2023-07-31T16:12:26;24.00;58.30
27492;DHT22;14927;51.210;6.838;2023-07-31T16:15:10;24.00;58.20
27492;DHT22;14927;51.210;6.838;2023-07-31T16:17:55;23.90;58.40
27492;DHT22;14927;51.210;6.838;2023-07-31T16:20:40;23.90;58.80
27492;DHT22;14927;51.210;6.838;2023-07-31T16:23:25;23.90;59.10
27492;DHT22;14927;51.210;6.838;2023-07-31T16:26:12;23.80;59.30
27492;DHT22;14927;51.210;6.838;2023-07-31T16:28:57;23.80;59.50
27492;DHT22;14927;51.210;6.838;2023-07-31T16:31:42;23.70;59.60
27492;DHT22;14927;51.210;6.838;2023-07-31T16:34:27;23.60;59.60
27492;DHT22;14927;51.210;6.838;2023-07-31T16:37:12;23.60;59.90
27492;DHT22;14927;51.210;6.838;2023-07-31T16:39:56;23.50;60.30
27492;DHT22;14927;51.210;6.838;2023-07-31T16:42:41;23.50;60.60
27492;DHT22;14927;51.210;6.838;2023-07-31T16:45:25;23.40;60.90
27492;DHT22;14927;51.210;6.838;2023-07-31T16:48:10;23.40;61.00
27492;DHT22;14927;51.210;6.838;2023-07-31T16:50:55;23.40;61.30
27492;DHT22;14927;51.210;6.838;2023-07-31T16:53:40;23.30;61.60
27492;DHT22;14927;51.210;6.838;2023-07-31T16:56:25;23.30;61.90
27492;DHT22;14927;51.210;6.838;2023-07-31T16:59:09;23.20;61.90
27492;DHT22;14927;51.210;6.838;2023-07-31T17:01:54;23.20;62.40
27492;DHT22;14927;51.210;6.838;2023-07-31T17:04:40;23.10;62.60
27492;DHT22;14927;51.210;6.838;2023-07-31T17:07:24;23.10;62.70
27492;DHT22;14927;51.210;6.838;2023-07-31T17:10:09;23.10;62.90
27492;DHT22;14927;51.210;6.838;2023-07-31T17:12:54;23.10;62.90
27492;DHT22;14927;51.210;6.838;2023-07-31T17:15:38;23.00;63.00
27492;DHT22;14927;51.210;6.838;2023-07-31T17:18:23;23.00;63.20
27492;DHT22;14927;51.210;6.838;2023-07-31T17:21:08;22.90;63.50
27492;DHT22;14927;51.210;6.838;2023-07-31T17:23:54;22.90;63.80
27492;DHT22;14927;51.210;6.838;2023-07-31T17:26:39;22.90;64.00
27492;DHT22;14927;51.210;6.838;2023-07-31T17:29:28;22.90;64.20
27492;DHT22;14927;51.210;6.838;2023-07-31T17:32:13;22.90;64.70